Parshad — EPCA7 — position and weather

sailwx.info

Track history (hours):
 
Tides and Currents Weather Stations Pressure Air Temp Water Temp Dewpoint Dewpoint Depression Visibility Wind Speed Wind Dir Waves Ship Positions

Parshad

Last reported at 2017-Sep-18 09:06 UTC. Time now 2017-Nov-20 17:09 UTC.
Position N 37°02' E 001°21'.
Warning: this ship's position is months out of date.

Length 190 m; draft 10.9 m.

Type: Cargo ship. MMSI: 422040200.

Date/timePositionNaut miles runAvg speedWind from/ knotsBaromVisibWave heightAir tempDewpointWater temp
2017-Sep-18 09:06N 37°02' E 001°21'110.6
2017-Sep-18 09:00N 37°01' E 001°19'1010.7
2017-Sep-18 08:06N 36°59' E 001°08'110.6
2017-Sep-18 08:00N 36°59' E 001°06'510.7
2017-Sep-18 07:30N 36°58' E 000°60'8311.0
2017-Sep-18 00:00N 36°39' W 000°41'22011.8
2017-Sep-17 05:21N 36°02' W 005°10'412.1
2017-Sep-17 05:00N 36°01' W 005°15'612.2
2017-Sep-17 04:30N 35°59' W 005°22'714.2
2017-Sep-17 04:00N 35°56' W 005°31'9411.3
2017-Sep-16 19:38N 36°10' W 007°26'411.1
2017-Sep-16 19:17N 36°11' W 007°31'411.0
2017-Sep-16 18:56N 36°12' W 007°35'711.0
2017-Sep-16 18:17N 36°13' W 007°44'311.2
2017-Sep-16 18:00N 36°14' W 007°48'174 9.3
2017-Sep-15 23:14N 38°30' W 010°04'1111.0
2017-Sep-15 22:15N 38°40' W 010°07'311.3
2017-Sep-15 21:57N 38°44' W 010°07'511.3
2017-Sep-15 21:30N 38°49' W 010°07'611.1
2017-Sep-15 21:00N 38°54' W 010°07'611.0
2017-Sep-15 20:29N 38°60' W 010°07'510.9
2017-Sep-15 20:00N 39°05' W 010°07'510.9
2017-Sep-15 19:31N 39°11' W 010°07'611.2
2017-Sep-15 18:56N 39°17' W 010°07'511.5
2017-Sep-15 18:29N 39°22' W 010°07'  
2017-Sep-12 20:49N 49°16' W 004°49'51 8.3
2017-Sep-12 14:44N 49°43' W 003°42'310.2
2017-Sep-12 14:26N 49°44' W 003°38'4 9.9
2017-Sep-12 14:01N 49°46' W 003°32'5 9.7
2017-Sep-12 13:31N 49°48' W 003°26'5 9.2
2017-Sep-12 13:01N 49°51' W 003°19'5 9.0
2017-Sep-12 12:30N 49°53' W 003°13'5 8.6
2017-Sep-12 11:58N 49°55' W 003°07'4 8.4
2017-Sep-12 11:30N 49°57' W 003°02'4 8.2
2017-Sep-12 11:01N 49°59' W 002°56'4 8.1
2017-Sep-12 10:30N 49°60' W 002°50'37 9.7
2017-Sep-12 06:40N 50°10' W 001°54'212.3
2017-Sep-12 06:30N 50°10' W 001°51'712.6
2017-Sep-12 05:58N 50°12' W 001°41'612.6
2017-Sep-12 05:29N 50°14' W 001°32'712.5
2017-Sep-12 04:56N 50°16' W 001°21'37 9.6
2017-Sep-12 01:08N 50°25' W 000°26'1 7.2
2017-Sep-12 01:00N 50°26' W 000°25'3 6.9
2017-Sep-12 00:30N 50°26' W 000°19'3 6.6
2017-Sep-12 00:00N 50°27' W 000°14'3 6.7
2017-Sep-11 23:30N 50°28' W 000°09'4 7.0
2017-Sep-11 23:00N 50°29' W 000°04'4 7.3
2017-Sep-11 22:30N 50°30' E 000°02'4 7.9
2017-Sep-11 22:00N 50°31' E 000°08'4 8.6
2017-Sep-11 21:29N 50°32' E 000°14'4 9.1
2017-Sep-11 21:00N 50°33' E 000°21'5 9.2
2017-Sep-11 20:30N 50°35' E 000°28'5 9.7
2017-Sep-11 20:00N 50°37' E 000°35'5 9.5
2017-Sep-11 19:30N 50°39' E 000°41'5 9.6
2017-Sep-11 19:00N 50°42' E 000°48'5 9.1
2017-Sep-11 18:30N 50°44' E 000°54'15 5.6
2017-Sep-11 15:53N 50°52' E 001°14'3 6.3
2017-Sep-11 15:24N 50°54' E 001°17'2 5.7
2017-Sep-11 14:59N 50°56' E 001°19'3 5.3
2017-Sep-11 14:26N 50°58' E 001°22'3 5.5
2017-Sep-11 13:49N 51°01' E 001°25'2 6.4
2017-Sep-11 13:30N 51°02' E 001°28'4 7.5
2017-Sep-11 13:00N 51°04' E 001°32'4 8.9
2017-Sep-11 12:30N 51°07' E 001°37'510.0
2017-Sep-11 12:00N 51°11' E 001°43'611.1
2017-Sep-11 11:30N 51°15' E 001°48'611.4
2017-Sep-11 11:00N 51°20' E 001°54'511.1
2017-Sep-11 10:30N 51°24' E 001°59'5 9.7
2017-Sep-11 10:01N 51°24' E 002°07'5 9.7
2017-Sep-11 09:30N 51°21' E 002°14'5 9.4
2017-Sep-11 09:00N 51°21' E 002°21'5 9.6
2017-Sep-11 08:30N 51°23' E 002°29'5 9.5
2017-Sep-11 08:00N 51°23' E 002°36'5 9.5
2017-Sep-11 07:30N 51°23' E 002°44'4 8.9
2017-Sep-11 07:00N 51°22' E 002°51'5 9.2
2017-Sep-11 06:30N 51°23' E 002°58'4 8.8
2017-Sep-11 06:00N 51°24' E 003°05'5 9.3
2017-Sep-11 05:30N 51°25' E 003°13'5 9.3
2017-Sep-11 05:00N 51°24' E 003°20'5 9.3
2017-Sep-11 04:30N 51°25' E 003°27'5 9.0
2017-Sep-11 04:00N 51°26' E 003°35'2 4.4
2017-Sep-11 03:30N 51°26' E 003°38'3 6.4
2017-Sep-11 03:00N 51°25' E 003°43'4 7.6
2017-Sep-11 02:30N 51°22' E 003°46'3 5.4
2017-Sep-11 02:00N 51°20' E 003°49'0 0.3
2017-Sep-11 01:30N 51°20' E 003°49'1 2.4
2017-Sep-11 01:01N 51°19' E 003°50'1 0.9
2017-Sep-11 00:27N 51°18' E 003°50'0 0.0
2017-Sep-11 00:00N 51°18' E 003°50'0 0.0
2017-Sep-10 23:31N 51°18' E 003°50'0 0.0
2017-Sep-10 23:00N 51°18' E 003°50'0 0.0
2017-Sep-10 22:31N 51°18' E 003°50'0 0.0
2017-Sep-10 21:58N 51°18' E 003°50'0 0.0
2017-Sep-10 21:30N 51°18' E 003°50'0 0.0
2017-Sep-10 21:00N 51°18' E 003°50'0 0.0
2017-Sep-10 20:30N 51°18' E 003°50'0 0.0
2017-Sep-10 20:01N 51°18' E 003°50'0 0.0
2017-Sep-10 19:31N 51°18' E 003°50'0 0.0
2017-Sep-10 19:00N 51°18' E 003°50'0 0.0
2017-Sep-10 18:30N 51°18' E 003°50'0 0.0
2017-Sep-10 18:00N 51°18' E 003°50'0 0.0
2017-Sep-10 17:29N 51°18' E 003°50'0 0.0
2017-Sep-10 17:01N 51°18' E 003°50'0 0.0
2017-Sep-10 16:31N 51°18' E 003°50'0 0.0
2017-Sep-10 15:59N 51°18' E 003°50'0 0.0
2017-Sep-10 15:30N 51°18' E 003°50'0 0.0
2017-Sep-10 15:00N 51°18' E 003°50'0 0.0
2017-Sep-10 14:00N 51°18' E 003°50'0 0.0
2017-Sep-10 13:30N 51°18' E 003°50'0 0.0
2017-Sep-10 13:00N 51°18' E 003°50'0 0.0
2017-Sep-10 12:30N 51°18' E 003°50'0 0.0
2017-Sep-10 11:59N 51°18' E 003°50'0 0.0
2017-Sep-10 11:30N 51°18' E 003°50'0 0.0
2017-Sep-10 10:58N 51°18' E 003°50'0 0.0
2017-Sep-10 10:31N 51°18' E 003°50'0 0.0
2017-Sep-10 10:01N 51°18' E 003°50'0 0.0
2017-Sep-10 09:31N 51°18' E 003°50'0 0.0
2017-Sep-10 09:01N 51°18' E 003°50'0 0.0
2017-Sep-10 08:31N 51°18' E 003°50'0 0.0
2017-Sep-10 07:58N 51°18' E 003°50'0 0.0
2017-Sep-10 07:30N 51°18' E 003°50'0 0.0
2017-Sep-10 07:01N 51°18' E 003°50'0 0.0
2017-Sep-10 06:31N 51°18' E 003°50'0 0.0
2017-Sep-10 06:00N 51°18' E 003°50'0 0.0
2017-Sep-10 05:30N 51°18' E 003°50'0 0.0
2017-Sep-10 05:00N 51°18' E 003°50'0 0.0
2017-Sep-10 04:26N 51°18' E 003°50'0 0.0
2017-Sep-10 04:00N 51°18' E 003°50'0 0.0
2017-Sep-10 03:30N 51°18' E 003°50'0 0.0
2017-Sep-10 03:01N 51°18' E 003°50'0 0.0
2017-Sep-10 02:29N 51°18' E 003°50'0 0.0
2017-Sep-10 01:59N 51°18' E 003°50'0 0.0
2017-Sep-10 01:31N 51°18' E 003°50'0 0.0
2017-Sep-10 00:59N 51°18' E 003°50'0 0.0
2017-Sep-10 00:31N 51°18' E 003°50'0 0.0
2017-Sep-10 00:00N 51°18' E 003°50'0 0.0
2017-Sep-09 23:31N 51°18' E 003°50'0 0.0
2017-Sep-09 23:01N 51°18' E 003°50'0 0.0
2017-Sep-09 22:31N 51°18' E 003°50'0 0.0
2017-Sep-09 22:00N 51°18' E 003°50'0 0.0
2017-Sep-09 21:31N 51°18' E 003°50'0 0.0
2017-Sep-09 20:55N 51°18' E 003°50'0 0.0
2017-Sep-09 20:31N 51°18' E 003°50'0 0.0
2017-Sep-09 20:00N 51°18' E 003°50'0 0.0
2017-Sep-09 19:30N 51°18' E 003°50'0 0.0
2017-Sep-09 19:00N 51°18' E 003°50'0 0.0
2017-Sep-09 18:30N 51°18' E 003°50'0 0.0
2017-Sep-09 18:01N 51°18' E 003°50'0 0.0
2017-Sep-09 17:28N 51°18' E 003°50'0 0.0
2017-Sep-09 16:59N 51°18' E 003°50'0 0.0
2017-Sep-09 16:31N 51°18' E 003°50'0 0.0
2017-Sep-09 15:58N 51°18' E 003°50'0 0.0
2017-Sep-09 15:29N 51°18' E 003°50'0 0.0
2017-Sep-09 15:01N 51°18' E 003°50'0 0.0
2017-Sep-09 14:29N 51°18' E 003°50'0 0.0
2017-Sep-09 14:01N 51°18' E 003°50'0 0.0
2017-Sep-09 13:28N 51°18' E 003°50'0 0.0
2017-Sep-09 12:55N 51°18' E 003°50'0 0.0
2017-Sep-09 12:31N 51°18' E 003°50'0 0.0
2017-Sep-09 11:59N 51°18' E 003°50'0 0.0
2017-Sep-09 11:26N 51°18' E 003°50'0 0.0
2017-Sep-09 11:01N 51°18' E 003°50'0 0.0
2017-Sep-09 10:31N 51°18' E 003°50'0 0.0
2017-Sep-09 09:56N 51°18' E 003°50'0 0.0
2017-Sep-09 09:30N 51°18' E 003°50'0 0.0
2017-Sep-09 09:01N 51°18' E 003°50'0 0.0
2017-Sep-09 08:31N 51°18' E 003°50'0 0.0
2017-Sep-09 08:00N 51°18' E 003°50'0 0.0
2017-Sep-09 07:30N 51°18' E 003°50'0 0.0
2017-Sep-09 07:01N 51°18' E 003°50'0 0.0
2017-Sep-09 06:31N 51°18' E 003°50'0 0.0
2017-Sep-09 06:00N 51°18' E 003°50'0 0.0
2017-Sep-09 05:30N 51°18' E 003°50'0 0.0
2017-Sep-09 05:00N 51°18' E 003°50'0 0.0
2017-Sep-09 04:31N 51°18' E 003°50'0 0.0
2017-Sep-09 04:01N 51°18' E 003°50'0 0.0
2017-Sep-09 03:29N 51°18' E 003°50'0 0.0
2017-Sep-09 03:00N 51°18' E 003°50'0 0.0
2017-Sep-09 02:30N 51°18' E 003°50'0 0.0
2017-Sep-09 02:01N 51°18' E 003°50'0 0.0
2017-Sep-09 01:30N 51°18' E 003°50'0 0.0
2017-Sep-09 00:59N 51°18' E 003°50'0 0.0
2017-Sep-09 00:30N 51°18' E 003°50'0 0.0
2017-Sep-09 00:00N 51°18' E 003°50'0 0.0
2017-Sep-08 23:31N 51°18' E 003°50'0 0.0
2017-Sep-08 22:58N 51°18' E 003°50'0 0.0
2017-Sep-08 22:28N 51°18' E 003°50'0 0.0
2017-Sep-08 21:56N 51°18' E 003°50'0 0.0
2017-Sep-08 21:30N 51°18' E 003°50'0 0.0
2017-Sep-08 20:55N 51°18' E 003°50'0 0.0
2017-Sep-08 20:30N 51°18' E 003°50'0 0.0
2017-Sep-08 20:00N 51°18' E 003°50'0 0.0
2017-Sep-08 19:27N 51°18' E 003°50'0 0.0
2017-Sep-08 19:00N 51°18' E 003°50'0 0.0
2017-Sep-08 18:30N 51°18' E 003°50'0 0.0
2017-Sep-08 17:58N 51°18' E 003°50'0 0.0
2017-Sep-08 17:29N 51°18' E 003°50'0 0.0
2017-Sep-08 17:00N 51°18' E 003°50'0 0.0
2017-Sep-08 16:30N 51°18' E 003°50'0 0.0
2017-Sep-08 16:00N 51°18' E 003°50'0 0.0
2017-Sep-08 15:30N 51°18' E 003°50'0 0.0
2017-Sep-08 15:00N 51°18' E 003°50'0 0.0
2017-Sep-08 14:30N 51°18' E 003°50'0 0.0
2017-Sep-08 14:00N 51°18' E 003°50'0 0.0
2017-Sep-08 13:28N 51°18' E 003°50'0 0.0
2017-Sep-08 13:00N 51°18' E 003°50'0 0.0
2017-Sep-08 12:30N 51°18' E 003°50'0 0.0
2017-Sep-08 12:00N 51°18' E 003°50'0 0.0
2017-Sep-08 11:30N 51°18' E 003°50'0 0.0
2017-Sep-08 10:59N 51°18' E 003°50'0 0.0
2017-Sep-08 10:30N 51°18' E 003°50'0 0.0
2017-Sep-08 10:00N 51°18' E 003°50'0 0.0
2017-Sep-08 09:25N 51°18' E 003°50'  
Track history (hours):
 
Tides and Currents Weather Stations Pressure Air Temp Water Temp Dewpoint Dewpoint Depression Visibility Wind Speed Wind Dir Waves Ship Positions

Parshad

Last reported at 2017-Sep-18 09:06 UTC. Time now 2017-Nov-20 17:09 UTC.
Position N 37°02' E 001°21'.
Warning: this ship's position is months out of date.

Length 190 m; draft 10.9 m.

Type: Cargo ship. MMSI: 422040200.

Date/timePositionNaut miles runAvg speedWind from/ knotsBaromVisibWave heightAir tempDewpointWater temp
2017-Sep-18 09:06N 37°02' E 001°21'110.6
2017-Sep-18 09:00N 37°01' E 001°19'1010.7
2017-Sep-18 08:06N 36°59' E 001°08'110.6
2017-Sep-18 08:00N 36°59' E 001°06'510.7
2017-Sep-18 07:30N 36°58' E 000°60'8311.0
2017-Sep-18 00:00N 36°39' W 000°41'22011.8
2017-Sep-17 05:21N 36°02' W 005°10'412.1
2017-Sep-17 05:00N 36°01' W 005°15'612.2
2017-Sep-17 04:30N 35°59' W 005°22'714.2
2017-Sep-17 04:00N 35°56' W 005°31'9411.3
2017-Sep-16 19:38N 36°10' W 007°26'411.1
2017-Sep-16 19:17N 36°11' W 007°31'411.0
2017-Sep-16 18:56N 36°12' W 007°35'711.0
2017-Sep-16 18:17N 36°13' W 007°44'311.2
2017-Sep-16 18:00N 36°14' W 007°48'174 9.3
2017-Sep-15 23:14N 38°30' W 010°04'1111.0
2017-Sep-15 22:15N 38°40' W 010°07'311.3
2017-Sep-15 21:57N 38°44' W 010°07'511.3
2017-Sep-15 21:30N 38°49' W 010°07'611.1
2017-Sep-15 21:00N 38°54' W 010°07'611.0
2017-Sep-15 20:29N 38°60' W 010°07'510.9
2017-Sep-15 20:00N 39°05' W 010°07'510.9
2017-Sep-15 19:31N 39°11' W 010°07'611.2
2017-Sep-15 18:56N 39°17' W 010°07'511.5
2017-Sep-15 18:29N 39°22' W 010°07'  
2017-Sep-12 20:49N 49°16' W 004°49'51 8.3
2017-Sep-12 14:44N 49°43' W 003°42'310.2
2017-Sep-12 14:26N 49°44' W 003°38'4 9.9
2017-Sep-12 14:01N 49°46' W 003°32'5 9.7
2017-Sep-12 13:31N 49°48' W 003°26'5 9.2
2017-Sep-12 13:01N 49°51' W 003°19'5 9.0
2017-Sep-12 12:30N 49°53' W 003°13'5 8.6
2017-Sep-12 11:58N 49°55' W 003°07'4 8.4
2017-Sep-12 11:30N 49°57' W 003°02'4 8.2
2017-Sep-12 11:01N 49°59' W 002°56'4 8.1
2017-Sep-12 10:30N 49°60' W 002°50'37 9.7
2017-Sep-12 06:40N 50°10' W 001°54'212.3
2017-Sep-12 06:30N 50°10' W 001°51'712.6
2017-Sep-12 05:58N 50°12' W 001°41'612.6
2017-Sep-12 05:29N 50°14' W 001°32'712.5
2017-Sep-12 04:56N 50°16' W 001°21'37 9.6
2017-Sep-12 01:08N 50°25' W 000°26'1 7.2
2017-Sep-12 01:00N 50°26' W 000°25'3 6.9
2017-Sep-12 00:30N 50°26' W 000°19'3 6.6
2017-Sep-12 00:00N 50°27' W 000°14'3 6.7
2017-Sep-11 23:30N 50°28' W 000°09'4 7.0
2017-Sep-11 23:00N 50°29' W 000°04'4 7.3
2017-Sep-11 22:30N 50°30' E 000°02'4 7.9
2017-Sep-11 22:00N 50°31' E 000°08'4 8.6
2017-Sep-11 21:29N 50°32' E 000°14'4 9.1
2017-Sep-11 21:00N 50°33' E 000°21'5 9.2
2017-Sep-11 20:30N 50°35' E 000°28'5 9.7
2017-Sep-11 20:00N 50°37' E 000°35'5 9.5
2017-Sep-11 19:30N 50°39' E 000°41'5 9.6
2017-Sep-11 19:00N 50°42' E 000°48'5 9.1
2017-Sep-11 18:30N 50°44' E 000°54'15 5.6
2017-Sep-11 15:53N 50°52' E 001°14'3 6.3
2017-Sep-11 15:24N 50°54' E 001°17'2 5.7
2017-Sep-11 14:59N 50°56' E 001°19'3 5.3
2017-Sep-11 14:26N 50°58' E 001°22'3 5.5
2017-Sep-11 13:49N 51°01' E 001°25'2 6.4
2017-Sep-11 13:30N 51°02' E 001°28'4 7.5
2017-Sep-11 13:00N 51°04' E 001°32'4 8.9
2017-Sep-11 12:30N 51°07' E 001°37'510.0
2017-Sep-11 12:00N 51°11' E 001°43'611.1
2017-Sep-11 11:30N 51°15' E 001°48'611.4
2017-Sep-11 11:00N 51°20' E 001°54'511.1
2017-Sep-11 10:30N 51°24' E 001°59'5 9.7
2017-Sep-11 10:01N 51°24' E 002°07'5 9.7
2017-Sep-11 09:30N 51°21' E 002°14'5 9.4
2017-Sep-11 09:00N 51°21' E 002°21'5 9.6
2017-Sep-11 08:30N 51°23' E 002°29'5 9.5
2017-Sep-11 08:00N 51°23' E 002°36'5 9.5
2017-Sep-11 07:30N 51°23' E 002°44'4 8.9
2017-Sep-11 07:00N 51°22' E 002°51'5 9.2
2017-Sep-11 06:30N 51°23' E 002°58'4 8.8
2017-Sep-11 06:00N 51°24' E 003°05'5 9.3
2017-Sep-11 05:30N 51°25' E 003°13'5 9.3
2017-Sep-11 05:00N 51°24' E 003°20'5 9.3
2017-Sep-11 04:30N 51°25' E 003°27'5 9.0
2017-Sep-11 04:00N 51°26' E 003°35'2 4.4
2017-Sep-11 03:30N 51°26' E 003°38'3 6.4
2017-Sep-11 03:00N 51°25' E 003°43'4 7.6
2017-Sep-11 02:30N 51°22' E 003°46'3 5.4
2017-Sep-11 02:00N 51°20' E 003°49'0 0.3
2017-Sep-11 01:30N 51°20' E 003°49'1 2.4
2017-Sep-11 01:01N 51°19' E 003°50'1 0.9
2017-Sep-11 00:27N 51°18' E 003°50'0 0.0
2017-Sep-11 00:00N 51°18' E 003°50'0 0.0
2017-Sep-10 23:31N 51°18' E 003°50'0 0.0
2017-Sep-10 23:00N 51°18' E 003°50'0 0.0
2017-Sep-10 22:31N 51°18' E 003°50'0 0.0
2017-Sep-10 21:58N 51°18' E 003°50'0 0.0
2017-Sep-10 21:30N 51°18' E 003°50'0 0.0
2017-Sep-10 21:00N 51°18' E 003°50'0 0.0
2017-Sep-10 20:30N 51°18' E 003°50'0 0.0
2017-Sep-10 20:01N 51°18' E 003°50'0 0.0
2017-Sep-10 19:31N 51°18' E 003°50'0 0.0
2017-Sep-10 19:00N 51°18' E 003°50'0 0.0
2017-Sep-10 18:30N 51°18' E 003°50'0 0.0
2017-Sep-10 18:00N 51°18' E 003°50'0 0.0
2017-Sep-10 17:29N 51°18' E 003°50'0 0.0
2017-Sep-10 17:01N 51°18' E 003°50'0 0.0
2017-Sep-10 16:31N 51°18' E 003°50'0 0.0
2017-Sep-10 15:59N 51°18' E 003°50'0 0.0
2017-Sep-10 15:30N 51°18' E 003°50'0 0.0
2017-Sep-10 15:00N 51°18' E 003°50'0 0.0
2017-Sep-10 14:00N 51°18' E 003°50'0 0.0
2017-Sep-10 13:30N 51°18' E 003°50'0 0.0
2017-Sep-10 13:00N 51°18' E 003°50'0 0.0
2017-Sep-10 12:30N 51°18' E 003°50'0 0.0
2017-Sep-10 11:59N 51°18' E 003°50'0 0.0
2017-Sep-10 11:30N 51°18' E 003°50'0 0.0
2017-Sep-10 10:58N 51°18' E 003°50'0 0.0
2017-Sep-10 10:31N 51°18' E 003°50'0 0.0
2017-Sep-10 10:01N 51°18' E 003°50'0 0.0
2017-Sep-10 09:31N 51°18' E 003°50'0 0.0
2017-Sep-10 09:01N 51°18' E 003°50'0 0.0
2017-Sep-10 08:31N 51°18' E 003°50'0 0.0
2017-Sep-10 07:58N 51°18' E 003°50'0 0.0
2017-Sep-10 07:30N 51°18' E 003°50'0 0.0
2017-Sep-10 07:01N 51°18' E 003°50'0 0.0
2017-Sep-10 06:31N 51°18' E 003°50'0 0.0
2017-Sep-10 06:00N 51°18' E 003°50'0 0.0
2017-Sep-10 05:30N 51°18' E 003°50'0 0.0
2017-Sep-10 05:00N 51°18' E 003°50'0 0.0
2017-Sep-10 04:26N 51°18' E 003°50'0 0.0
2017-Sep-10 04:00N 51°18' E 003°50'0 0.0
2017-Sep-10 03:30N 51°18' E 003°50'0 0.0
2017-Sep-10 03:01N 51°18' E 003°50'0 0.0
2017-Sep-10 02:29N 51°18' E 003°50'0 0.0
2017-Sep-10 01:59N 51°18' E 003°50'0 0.0
2017-Sep-10 01:31N 51°18' E 003°50'0 0.0
2017-Sep-10 00:59N 51°18' E 003°50'0 0.0
2017-Sep-10 00:31N 51°18' E 003°50'0 0.0
2017-Sep-10 00:00N 51°18' E 003°50'0 0.0
2017-Sep-09 23:31N 51°18' E 003°50'0 0.0
2017-Sep-09 23:01N 51°18' E 003°50'0 0.0
2017-Sep-09 22:31N 51°18' E 003°50'0 0.0
2017-Sep-09 22:00N 51°18' E 003°50'0 0.0
2017-Sep-09 21:31N 51°18' E 003°50'0 0.0
2017-Sep-09 20:55N 51°18' E 003°50'0 0.0
2017-Sep-09 20:31N 51°18' E 003°50'0 0.0
2017-Sep-09 20:00N 51°18' E 003°50'0 0.0
2017-Sep-09 19:30N 51°18' E 003°50'0 0.0
2017-Sep-09 19:00N 51°18' E 003°50'0 0.0
2017-Sep-09 18:30N 51°18' E 003°50'0 0.0
2017-Sep-09 18:01N 51°18' E 003°50'0 0.0
2017-Sep-09 17:28N 51°18' E 003°50'0 0.0
2017-Sep-09 16:59N 51°18' E 003°50'0 0.0
2017-Sep-09 16:31N 51°18' E 003°50'0 0.0
2017-Sep-09 15:58N 51°18' E 003°50'0 0.0
2017-Sep-09 15:29N 51°18' E 003°50'0 0.0
2017-Sep-09 15:01N 51°18' E 003°50'0 0.0
2017-Sep-09 14:29N 51°18' E 003°50'0 0.0
2017-Sep-09 14:01N 51°18' E 003°50'0 0.0
2017-Sep-09 13:28N 51°18' E 003°50'0 0.0
2017-Sep-09 12:55N 51°18' E 003°50'0 0.0
2017-Sep-09 12:31N 51°18' E 003°50'0 0.0
2017-Sep-09 11:59N 51°18' E 003°50'0 0.0
2017-Sep-09 11:26N 51°18' E 003°50'0 0.0
2017-Sep-09 11:01N 51°18' E 003°50'0 0.0
2017-Sep-09 10:31N 51°18' E 003°50'0 0.0
2017-Sep-09 09:56N 51°18' E 003°50'0 0.0
2017-Sep-09 09:30N 51°18' E 003°50'0 0.0
2017-Sep-09 09:01N 51°18' E 003°50'0 0.0
2017-Sep-09 08:31N 51°18' E 003°50'0 0.0
2017-Sep-09 08:00N 51°18' E 003°50'0 0.0
2017-Sep-09 07:30N 51°18' E 003°50'0 0.0
2017-Sep-09 07:01N 51°18' E 003°50'0 0.0
2017-Sep-09 06:31N 51°18' E 003°50'0 0.0
2017-Sep-09 06:00N 51°18' E 003°50'0 0.0
2017-Sep-09 05:30N 51°18' E 003°50'0 0.0
2017-Sep-09 05:00N 51°18' E 003°50'0 0.0
2017-Sep-09 04:31N 51°18' E 003°50'0 0.0
2017-Sep-09 04:01N 51°18' E 003°50'0 0.0
2017-Sep-09 03:29N 51°18' E 003°50'0 0.0
2017-Sep-09 03:00N 51°18' E 003°50'0 0.0
2017-Sep-09 02:30N 51°18' E 003°50'0 0.0
2017-Sep-09 02:01N 51°18' E 003°50'0 0.0
2017-Sep-09 01:30N 51°18' E 003°50'0 0.0
2017-Sep-09 00:59N 51°18' E 003°50'0 0.0
2017-Sep-09 00:30N 51°18' E 003°50'0 0.0
2017-Sep-09 00:00N 51°18' E 003°50'0 0.0
2017-Sep-08 23:31N 51°18' E 003°50'0 0.0
2017-Sep-08 22:58N 51°18' E 003°50'0 0.0
2017-Sep-08 22:28N 51°18' E 003°50'0 0.0
2017-Sep-08 21:56N 51°18' E 003°50'0 0.0
2017-Sep-08 21:30N 51°18' E 003°50'0 0.0
2017-Sep-08 20:55N 51°18' E 003°50'0 0.0
2017-Sep-08 20:30N 51°18' E 003°50'0 0.0
2017-Sep-08 20:00N 51°18' E 003°50'0 0.0
2017-Sep-08 19:27N 51°18' E 003°50'0 0.0
2017-Sep-08 19:00N 51°18' E 003°50'0 0.0
2017-Sep-08 18:30N 51°18' E 003°50'0 0.0
2017-Sep-08 17:58N 51°18' E 003°50'0 0.0
2017-Sep-08 17:29N 51°18' E 003°50'0 0.0
2017-Sep-08 17:00N 51°18' E 003°50'0 0.0
2017-Sep-08 16:30N 51°18' E 003°50'0 0.0
2017-Sep-08 16:00N 51°18' E 003°50'0 0.0
2017-Sep-08 15:30N 51°18' E 003°50'0 0.0
2017-Sep-08 15:00N 51°18' E 003°50'0 0.0
2017-Sep-08 14:30N 51°18' E 003°50'0 0.0
2017-Sep-08 14:00N 51°18' E 003°50'0 0.0
2017-Sep-08 13:28N 51°18' E 003°50'0 0.0
2017-Sep-08 13:00N 51°18' E 003°50'0 0.0
2017-Sep-08 12:30N 51°18' E 003°50'0 0.0
2017-Sep-08 12:00N 51°18' E 003°50'0 0.0
2017-Sep-08 11:30N 51°18' E 003°50'0 0.0
2017-Sep-08 10:59N 51°18' E 003°50'0 0.0
2017-Sep-08 10:30N 51°18' E 003°50'0 0.0
2017-Sep-08 10:00N 51°18' E 003°50'0 0.0
2017-Sep-08 09:25N 51°18' E 003°50'  

Dump ship's entire track history